sensor_id;sensor_type;location;lat;lon;timestamp;temperature;humidity
49777;DHT22;35673;51.482;7.436;2023-05-01T00:01:47;12.50;69.30
49777;DHT22;35673;51.482;7.436;2023-05-01T00:04:13;12.50;69.10
49777;DHT22;35673;51.482;7.436;2023-05-01T00:06:38;12.40;69.00
49777;DHT22;35673;51.482;7.436;2023-05-01T00:09:04;12.40;69.20
49777;DHT22;35673;51.482;7.436;2023-05-01T00:11:31;12.40;69.00
49777;DHT22;35673;51.482;7.436;2023-05-01T00:13:56;12.30;69.10
49777;DHT22;35673;51.482;7.436;2023-05-01T00:16:22;12.30;69.20
49777;DHT22;35673;51.482;7.436;2023-05-01T00:18:47;12.30;69.60
49777;DHT22;35673;51.482;7.436;2023-05-01T00:21:13;12.20;69.50
49777;DHT22;35673;51.482;7.436;2023-05-01T00:23:38;12.20;69.50
49777;DHT22;35673;51.482;7.436;2023-05-01T00:26:04;12.20;69.70
49777;DHT22;35673;51.482;7.436;2023-05-01T00:28:30;12.10;69.60
49777;DHT22;35673;51.482;7.436;2023-05-01T00:30:56;12.10;69.60
49777;DHT22;35673;51.482;7.436;2023-05-01T00:33:21;12.10;70.00
49777;DHT22;35673;51.482;7.436;2023-05-01T00:35:47;12.00;69.90
49777;DHT22;35673;51.482;7.436;2023-05-01T00:38:12;12.00;70.10
49777;DHT22;35673;51.482;7.436;2023-05-01T00:40:41;12.00;70.50
49777;DHT22;35673;51.482;7.436;2023-05-01T00:43:08;12.00;70.20
49777;DHT22;35673;51.482;7.436;2023-05-01T00:45:33;11.90;70.20
49777;DHT22;35673;51.482;7.436;2023-05-01T00:47:59;11.80;70.30
49777;DHT22;35673;51.482;7.436;2023-05-01T00:50:24;11.80;70.80
49777;DHT22;35673;51.482;7.436;2023-05-01T00:52:50;11.80;70.80
49777;DHT22;35673;51.482;7.436;2023-05-01T00:55:15;11.80;70.80
49777;DHT22;35673;51.482;7.436;2023-05-01T00:57:41;11.70;70.70
49777;DHT22;35673;51.482;7.436;2023-05-01T01:00:06;11.70;71.10
49777;DHT22;35673;51.482;7.436;2023-05-01T01:02:39;11.60;71.30
49777;DHT22;35673;51.482;7.436;2023-05-01T01:05:05;11.70;71.20
49777;DHT22;35673;51.482;7.436;2023-05-01T01:07:36;11.60;71.40
49777;DHT22;35673;51.482;7.436;2023-05-01T01:10:05;11.60;71.30
49777;DHT22;35673;51.482;7.436;2023-05-01T01:22:46;11.40;71.80
49777;DHT22;35673;51.482;7.436;2023-05-01T01:25:26;11.40;71.70
49777;DHT22;35673;51.482;7.436;2023-05-01T01:30:33;11.40;72.00
49777;DHT22;35673;51.482;7.436;2023-05-01T01:35:37;11.30;72.30
49777;DHT22;35673;51.482;7.436;2023-05-01T01:38:08;11.30;72.60
49777;DHT22;35673;51.482;7.436;2023-05-01T01:40:38;11.30;72.40
49777;DHT22;35673;51.482;7.436;2023-05-01T01:43:09;11.20;72.40
49777;DHT22;35673;51.482;7.436;2023-05-01T01:45:42;11.20;72.50
49777;DHT22;35673;51.482;7.436;2023-05-01T01:48:08;11.20;72.40
49777;DHT22;35673;51.482;7.436;2023-05-01T01:50:36;11.10;72.50
49777;DHT22;35673;51.482;7.436;2023-05-01T01:53:03;11.10;72.70
49777;DHT22;35673;51.482;7.436;2023-05-01T01:55:30;11.10;72.60
49777;DHT22;35673;51.482;7.436;2023-05-01T01:57:57;11.10;72.70
49777;DHT22;35673;51.482;7.436;2023-05-01T02:00:23;11.00;72.80
49777;DHT22;35673;51.482;7.436;2023-05-01T02:02:49;11.00;72.90
49777;DHT22;35673;51.482;7.436;2023-05-01T02:05:15;11.00;73.30
49777;DHT22;35673;51.482;7.436;2023-05-01T02:07:42;11.00;72.90
49777;DHT22;35673;51.482;7.436;2023-05-01T02:10:10;10.90;73.40
49777;DHT22;35673;51.482;7.436;2023-05-01T02:12:37;10.90;73.20
49777;DHT22;35673;51.482;7.436;2023-05-01T02:15:03;10.90;73.80
49777;DHT22;35673;51.482;7.436;2023-05-01T02:17:30;10.80;73.80
49777;DHT22;35673;51.482;7.436;2023-05-01T02:19:57;10.90;73.80
49777;DHT22;35673;51.482;7.436;2023-05-01T02:22:23;10.80;74.00
49777;DHT22;35673;51.482;7.436;2023-05-01T02:24:52;10.80;74.10
49777;DHT22;35673;51.482;7.436;2023-05-01T02:27:42;10.80;74.30
49777;DHT22;35673;51.482;7.436;2023-05-01T02:30:04;10.70;74.20
49777;DHT22;35673;51.482;7.436;2023-05-01T02:32:31;10.70;74.40
49777;DHT22;35673;51.482;7.436;2023-05-01T02:34:56;10.60;74.70
49777;DHT22;35673;51.482;7.436;2023-05-01T02:37:22;10.60;74.80
49777;DHT22;35673;51.482;7.436;2023-05-01T02:39:47;10.50;74.90
49777;DHT22;35673;51.482;7.436;2023-05-01T02:42:14;10.50;75.10
49777;DHT22;35673;51.482;7.436;2023-05-01T02:44:42;10.40;75.40
49777;DHT22;35673;51.482;7.436;2023-05-01T02:47:09;10.40;75.50
49777;DHT22;35673;51.482;7.436;2023-05-01T02:49:36;10.40;75.40
49777;DHT22;35673;51.482;7.436;2023-05-01T02:52:02;10.30;75.80
49777;DHT22;35673;51.482;7.436;2023-05-01T02:54:29;10.20;75.60
49777;DHT22;35673;51.482;7.436;2023-05-01T02:56:55;10.20;76.00
49777;DHT22;35673;51.482;7.436;2023-05-01T02:59:24;10.20;76.10
49777;DHT22;35673;51.482;7.436;2023-05-01T03:01:49;10.20;76.10
49777;DHT22;35673;51.482;7.436;2023-05-01T03:04:16;10.10;76.10
49777;DHT22;35673;51.482;7.436;2023-05-01T03:06:41;10.10;76.60
49777;DHT22;35673;51.482;7.436;2023-05-01T03:09:08;10.10;76.60
49777;DHT22;35673;51.482;7.436;2023-05-01T03:11:34;10.00;76.40
49777;DHT22;35673;51.482;7.436;2023-05-01T03:13:59;10.00;76.70
49777;DHT22;35673;51.482;7.436;2023-05-01T03:16:25;10.00;76.60
49777;DHT22;35673;51.482;7.436;2023-05-01T03:18:51;10.00;77.00
49777;DHT22;35673;51.482;7.436;2023-05-01T03:21:16;10.00;77.00
49777;DHT22;35673;51.482;7.436;2023-05-01T03:23:42;10.00;77.00
49777;DHT22;35673;51.482;7.436;2023-05-01T03:26:07;10.00;77.00
49777;DHT22;35673;51.482;7.436;2023-05-01T03:28:33;10.00;77.40
49777;DHT22;35673;51.482;7.436;2023-05-01T03:30:58;9.90;77.40
49777;DHT22;35673;51.482;7.436;2023-05-01T03:33:24;9.90;77.50
49777;DHT22;35673;51.482;7.436;2023-05-01T03:35:58;10.00;77.80
49777;DHT22;35673;51.482;7.436;2023-05-01T03:38:24;10.00;77.40
49777;DHT22;35673;51.482;7.436;2023-05-01T03:40:51;9.90;77.60
49777;DHT22;35673;51.482;7.436;2023-05-01T03:43:16;9.90;77.40
49777;DHT22;35673;51.482;7.436;2023-05-01T03:45:42;9.90;77.70
49777;DHT22;35673;51.482;7.436;2023-05-01T03:48:07;9.90;77.50
49777;DHT22;35673;51.482;7.436;2023-05-01T03:50:33;9.90;77.80
49777;DHT22;35673;51.482;7.436;2023-05-01T03:52:58;9.90;77.70
49777;DHT22;35673;51.482;7.436;2023-05-01T03:55:24;9.80;77.70
49777;DHT22;35673;51.482;7.436;2023-05-01T03:57:49;9.90;77.80
49777;DHT22;35673;51.482;7.436;2023-05-01T04:00:16;9.80;77.50
49777;DHT22;35673;51.482;7.436;2023-05-01T04:02:42;9.80;78.00
49777;DHT22;35673;51.482;7.436;2023-05-01T04:05:08;9.80;78.10
49777;DHT22;35673;51.482;7.436;2023-05-01T04:07:33;9.70;77.80
49777;DHT22;35673;51.482;7.436;2023-05-01T04:09:59;9.70;78.40
49777;DHT22;35673;51.482;7.436;2023-05-01T04:12:24;9.70;78.40
49777;DHT22;35673;51.482;7.436;2023-05-01T04:14:50;9.70;78.50
49777;DHT22;35673;51.482;7.436;2023-05-01T04:17:15;9.80;78.30
49777;DHT22;35673;51.482;7.436;2023-05-01T04:19:41;9.70;78.50
49777;DHT22;35673;51.482;7.436;2023-05-01T04:22:06;9.80;78.80
49777;DHT22;35673;51.482;7.436;2023-05-01T04:24:32;9.80;78.60
49777;DHT22;35673;51.482;7.436;2023-05-01T04:26:58;9.80;78.60
49777;DHT22;35673;51.482;7.436;2023-05-01T04:29:23;9.80;79.00
49777;DHT22;35673;51.482;7.436;2023-05-01T04:31:49;9.80;79.30
49777;DHT22;35673;51.482;7.436;2023-05-01T04:34:14;9.90;79.30
49777;DHT22;35673;51.482;7.436;2023-05-01T04:36:40;9.90;79.30
49777;DHT22;35673;51.482;7.436;2023-05-01T04:39:06;9.90;79.10
49777;DHT22;35673;51.482;7.436;2023-05-01T04:41:31;10.00;79.60
49777;DHT22;35673;51.482;7.436;2023-05-01T04:43:57;10.00;79.40
49777;DHT22;35673;51.482;7.436;2023-05-01T04:46:23;10.00;79.40
49777;DHT22;35673;51.482;7.436;2023-05-01T04:48:48;10.00;79.10
49777;DHT22;35673;51.482;7.436;2023-05-01T04:51:14;10.00;78.90
49777;DHT22;35673;51.482;7.436;2023-05-01T04:53:40;10.00;80.00
49777;DHT22;35673;51.482;7.436;2023-05-01T04:56:05;10.00;79.60
49777;DHT22;35673;51.482;7.436;2023-05-01T04:58:31;10.00;79.40
49777;DHT22;35673;51.482;7.436;2023-05-01T05:00:56;10.00;79.20
49777;DHT22;35673;51.482;7.436;2023-05-01T05:03:22;10.00;79.40
49777;DHT22;35673;51.482;7.436;2023-05-01T05:05:47;10.10;79.30
49777;DHT22;35673;51.482;7.436;2023-05-01T05:08:13;10.10;79.50
49777;DHT22;35673;51.482;7.436;2023-05-01T05:10:38;10.20;79.70
49777;DHT22;35673;51.482;7.436;2023-05-01T05:13:04;10.20;79.50
49777;DHT22;35673;51.482;7.436;2023-05-01T05:15:29;10.30;79.60
49777;DHT22;35673;51.482;7.436;2023-05-01T05:17:55;10.30;79.50
49777;DHT22;35673;51.482;7.436;2023-05-01T05:20:20;10.40;79.40
49777;DHT22;35673;51.482;7.436;2023-05-01T05:22:46;10.40;79.60
49777;DHT22;35673;51.482;7.436;2023-05-01T05:25:11;10.50;79.50
49777;DHT22;35673;51.482;7.436;2023-05-01T05:27:37;10.60;79.40
49777;DHT22;35673;51.482;7.436;2023-05-01T05:30:03;10.70;79.30
49777;DHT22;35673;51.482;7.436;2023-05-01T05:32:30;10.70;79.00
49777;DHT22;35673;51.482;7.436;2023-05-01T05:34:55;10.70;78.90
49777;DHT22;35673;51.482;7.436;2023-05-01T05:37:21;10.80;78.80
49777;DHT22;35673;51.482;7.436;2023-05-01T05:39:48;10.90;78.60
49777;DHT22;35673;51.482;7.436;2023-05-01T05:42:14;10.90;78.60
49777;DHT22;35673;51.482;7.436;2023-05-01T05:44:39;11.00;78.60
49777;DHT22;35673;51.482;7.436;2023-05-01T05:47:05;11.00;78.60
49777;DHT22;35673;51.482;7.436;2023-05-01T05:49:31;11.10;78.70
49777;DHT22;35673;51.482;7.436;2023-05-01T05:51:56;11.10;78.60
49777;DHT22;35673;51.482;7.436;2023-05-01T05:54:22;11.10;78.60
49777;DHT22;35673;51.482;7.436;2023-05-01T05:56:47;11.20;78.70
49777;DHT22;35673;51.482;7.436;2023-05-01T05:59:13;11.20;78.70
49777;DHT22;35673;51.482;7.436;2023-05-01T06:01:38;11.30;79.00
49777;DHT22;35673;51.482;7.436;2023-05-01T06:04:04;11.30;79.10
49777;DHT22;35673;51.482;7.436;2023-05-01T06:06:31;11.40;78.80
49777;DHT22;35673;51.482;7.436;2023-05-01T06:08:57;11.40;78.70
49777;DHT22;35673;51.482;7.436;2023-05-01T06:11:22;11.50;78.80
49777;DHT22;35673;51.482;7.436;2023-05-01T06:13:48;11.60;78.50
49777;DHT22;35673;51.482;7.436;2023-05-01T06:16:13;11.60;78.70
49777;DHT22;35673;51.482;7.436;2023-05-01T06:18:39;11.70;78.50
49777;DHT22;35673;51.482;7.436;2023-05-01T06:21:05;11.80;78.30
49777;DHT22;35673;51.482;7.436;2023-05-01T06:23:31;11.80;79.00
49777;DHT22;35673;51.482;7.436;2023-05-01T06:25:57;11.90;78.50
49777;DHT22;35673;51.482;7.436;2023-05-01T06:28:23;12.00;78.80
49777;DHT22;35673;51.482;7.436;2023-05-01T06:30:48;12.10;78.70
49777;DHT22;35673;51.482;7.436;2023-05-01T06:33:14;12.10;78.60
49777;DHT22;35673;51.482;7.436;2023-05-01T06:35:39;12.20;78.90
49777;DHT22;35673;51.482;7.436;2023-05-01T06:38:05;12.40;78.90
49777;DHT22;35673;51.482;7.436;2023-05-01T06:40:30;12.40;78.50
49777;DHT22;35673;51.482;7.436;2023-05-01T06:42:59;12.50;78.70
49777;DHT22;35673;51.482;7.436;2023-05-01T06:45:25;12.60;78.40
49777;DHT22;35673;51.482;7.436;2023-05-01T06:47:50;12.70;78.10
49777;DHT22;35673;51.482;7.436;2023-05-01T06:50:16;12.80;78.00
49777;DHT22;35673;51.482;7.436;2023-05-01T06:52:42;12.90;78.10
49777;DHT22;35673;51.482;7.436;2023-05-01T06:55:08;13.00;77.80
49777;DHT22;35673;51.482;7.436;2023-05-01T06:57:33;13.10;77.50
49777;DHT22;35673;51.482;7.436;2023-05-01T06:59:59;13.20;77.10
49777;DHT22;35673;51.482;7.436;2023-05-01T07:02:24;13.30;76.40
49777;DHT22;35673;51.482;7.436;2023-05-01T07:04:51;13.40;75.90
49777;DHT22;35673;51.482;7.436;2023-05-01T07:07:17;13.50;78.10
49777;DHT22;35673;51.482;7.436;2023-05-01T07:09:42;13.70;77.90
49777;DHT22;35673;51.482;7.436;2023-05-01T07:12:08;13.90;76.90
49777;DHT22;35673;51.482;7.436;2023-05-01T07:14:34;14.00;75.80
49777;DHT22;35673;51.482;7.436;2023-05-01T07:17:00;14.10;74.80
49777;DHT22;35673;51.482;7.436;2023-05-01T07:19:26;14.20;74.40
49777;DHT22;35673;51.482;7.436;2023-05-01T07:21:51;14.40;74.00
49777;DHT22;35673;51.482;7.436;2023-05-01T07:24:17;14.50;73.70
49777;DHT22;35673;51.482;7.436;2023-05-01T07:26:42;14.50;73.00
49777;DHT22;35673;51.482;7.436;2023-05-01T07:29:08;14.70;72.80
49777;DHT22;35673;51.482;7.436;2023-05-01T07:31:33;14.90;72.50
49777;DHT22;35673;51.482;7.436;2023-05-01T07:33:59;15.00;72.20
49777;DHT22;35673;51.482;7.436;2023-05-01T07:36:24;15.10;71.60
49777;DHT22;35673;51.482;7.436;2023-05-01T07:38:50;15.20;71.20
49777;DHT22;35673;51.482;7.436;2023-05-01T07:41:15;15.40;70.80
49777;DHT22;35673;51.482;7.436;2023-05-01T07:43:41;15.60;70.30
49777;DHT22;35673;51.482;7.436;2023-05-01T07:46:06;15.70;69.50
49777;DHT22;35673;51.482;7.436;2023-05-01T07:48:32;15.80;69.00
49777;DHT22;35673;51.482;7.436;2023-05-01T07:51:00;15.90;69.00
49777;DHT22;35673;51.482;7.436;2023-05-01T07:53:26;16.20;68.80
49777;DHT22;35673;51.482;7.436;2023-05-01T07:55:51;16.40;68.50
49777;DHT22;35673;51.482;7.436;2023-05-01T07:58:17;16.50;67.20
49777;DHT22;35673;51.482;7.436;2023-05-01T08:00:43;16.50;67.00
49777;DHT22;35673;51.482;7.436;2023-05-01T08:03:09;16.70;66.40
49777;DHT22;35673;51.482;7.436;2023-05-01T08:05:37;16.60;64.60
49777;DHT22;35673;51.482;7.436;2023-05-01T08:08:03;16.60;65.20
49777;DHT22;35673;51.482;7.436;2023-05-01T08:10:29;16.70;65.50
49777;DHT22;35673;51.482;7.436;2023-05-01T08:12:55;16.90;65.00
49777;DHT22;35673;51.482;7.436;2023-05-01T08:15:21;17.10;64.60
49777;DHT22;35673;51.482;7.436;2023-05-01T08:17:46;17.30;64.10
49777;DHT22;35673;51.482;7.436;2023-05-01T08:20:12;17.40;62.90
49777;DHT22;35673;51.482;7.436;2023-05-01T08:22:37;17.50;63.20
49777;DHT22;35673;51.482;7.436;2023-05-01T08:25:03;17.60;63.30
49777;DHT22;35673;51.482;7.436;2023-05-01T08:27:30;17.60;62.60
49777;DHT22;35673;51.482;7.436;2023-05-01T08:29:55;17.70;62.50
49777;DHT22;35673;51.482;7.436;2023-05-01T08:32:21;17.60;62.30
49777;DHT22;35673;51.482;7.436;2023-05-01T08:34:46;17.60;62.50
49777;DHT22;35673;51.482;7.436;2023-05-01T08:37:12;17.70;62.30
49777;DHT22;35673;51.482;7.436;2023-05-01T08:39:37;18.00;62.70
49777;DHT22;35673;51.482;7.436;2023-05-01T08:42:03;18.40;62.10
49777;DHT22;35673;51.482;7.436;2023-05-01T08:44:29;18.90;61.20
49777;DHT22;35673;51.482;7.436;2023-05-01T08:47:05;19.10;60.60
49777;DHT22;35673;51.482;7.436;2023-05-01T08:49:32;19.40;60.40
49777;DHT22;35673;51.482;7.436;2023-05-01T08:52:01;19.90;59.10
49777;DHT22;35673;51.482;7.436;2023-05-01T08:54:28;20.00;58.30
49777;DHT22;35673;51.482;7.436;2023-05-01T08:56:54;20.00;58.50
49777;DHT22;35673;51.482;7.436;2023-05-01T08:59:20;20.00;58.10
49777;DHT22;35673;51.482;7.436;2023-05-01T09:01:46;20.00;57.80
49777;DHT22;35673;51.482;7.436;2023-05-01T09:04:12;20.10;58.20
49777;DHT22;35673;51.482;7.436;2023-05-01T09:06:38;20.30;58.60
49777;DHT22;35673;51.482;7.436;2023-05-01T09:09:04;20.30;58.70
49777;DHT22;35673;51.482;7.436;2023-05-01T09:11:30;20.60;59.30
49777;DHT22;35673;51.482;7.436;2023-05-01T09:13:55;20.80;57.80
49777;DHT22;35673;51.482;7.436;2023-05-01T09:16:21;20.80;57.80
49777;DHT22;35673;51.482;7.436;2023-05-01T09:18:47;21.20;57.80
49777;DHT22;35673;51.482;7.436;2023-05-01T09:21:13;21.50;57.70
49777;DHT22;35673;51.482;7.436;2023-05-01T09:23:38;21.60;57.00
49777;DHT22;35673;51.482;7.436;2023-05-01T09:26:08;21.90;56.60
49777;DHT22;35673;51.482;7.436;2023-05-01T09:28:40;21.80;55.40
49777;DHT22;35673;51.482;7.436;2023-05-01T09:31:28;21.50;56.60
49777;DHT22;35673;51.482;7.436;2023-05-01T09:33:55;21.50;56.40
49777;DHT22;35673;51.482;7.436;2023-05-01T09:36:21;21.20;56.80
49777;DHT22;35673;51.482;7.436;2023-05-01T09:38:47;21.30;55.80
49777;DHT22;35673;51.482;7.436;2023-05-01T09:41:12;21.20;55.60
49777;DHT22;35673;51.482;7.436;2023-05-01T09:43:38;21.20;55.60
49777;DHT22;35673;51.482;7.436;2023-05-01T09:48:29;21.20;55.70
49777;DHT22;35673;51.482;7.436;2023-05-01T09:50:55;21.20;55.90
49777;DHT22;35673;51.482;7.436;2023-05-01T09:53:32;21.40;55.60
49777;DHT22;35673;51.482;7.436;2023-05-01T09:56:01;21.40;55.90
49777;DHT22;35673;51.482;7.436;2023-05-01T09:58:27;21.30;54.70
49777;DHT22;35673;51.482;7.436;2023-05-01T10:00:52;21.40;54.80
49777;DHT22;35673;51.482;7.436;2023-05-01T10:03:18;21.60;54.80
49777;DHT22;35673;51.482;7.436;2023-05-01T10:05:43;21.60;54.30
49777;DHT22;35673;51.482;7.436;2023-05-01T10:08:09;21.40;54.40
49777;DHT22;35673;51.482;7.436;2023-05-01T10:10:39;21.10;54.10
49777;DHT22;35673;51.482;7.436;2023-05-01T10:13:17;20.80;54.80
49777;DHT22;35673;51.482;7.436;2023-05-01T10:15:43;20.60;54.30
49777;DHT22;35673;51.482;7.436;2023-05-01T10:18:08;20.40;54.60
49777;DHT22;35673;51.482;7.436;2023-05-01T10:20:34;20.20;55.00
49777;DHT22;35673;51.482;7.436;2023-05-01T10:23:03;20.20;55.10
49777;DHT22;35673;51.482;7.436;2023-05-01T10:25:28;20.40;54.80
49777;DHT22;35673;51.482;7.436;2023-05-01T10:27:55;20.40;55.50
49777;DHT22;35673;51.482;7.436;2023-05-01T10:30:26;20.50;55.80
49777;DHT22;35673;51.482;7.436;2023-05-01T10:32:53;20.60;54.90
49777;DHT22;35673;51.482;7.436;2023-05-01T10:35:20;20.60;55.20
49777;DHT22;35673;51.482;7.436;2023-05-01T10:37:46;20.70;54.50
49777;DHT22;35673;51.482;7.436;2023-05-01T10:43:13;20.90;54.00
49777;DHT22;35673;51.482;7.436;2023-05-01T10:45:40;21.00;54.10
49777;DHT22;35673;51.482;7.436;2023-05-01T10:48:06;21.00;53.70
49777;DHT22;35673;51.482;7.436;2023-05-01T10:50:32;20.80;53.90
49777;DHT22;35673;51.482;7.436;2023-05-01T10:55:39;21.30;53.50
49777;DHT22;35673;51.482;7.436;2023-05-01T10:58:07;21.70;53.10
49777;DHT22;35673;51.482;7.436;2023-05-01T11:00:33;22.20;52.30
49777;DHT22;35673;51.482;7.436;2023-05-01T11:08:29;22.70;49.70
49777;DHT22;35673;51.482;7.436;2023-05-01T11:13:58;22.70;49.60
49777;DHT22;35673;51.482;7.436;2023-05-01T11:18:58;22.50;50.20
49777;DHT22;35673;51.482;7.436;2023-05-01T11:21:33;22.20;50.80
49777;DHT22;35673;51.482;7.436;2023-05-01T11:23:59;21.90;51.60
49777;DHT22;35673;51.482;7.436;2023-05-01T11:26:25;21.60;51.70
49777;DHT22;35673;51.482;7.436;2023-05-01T11:28:53;21.40;53.10
49777;DHT22;35673;51.482;7.436;2023-05-01T11:31:18;21.10;53.50
49777;DHT22;35673;51.482;7.436;2023-05-01T11:33:44;20.90;53.30
49777;DHT22;35673;51.482;7.436;2023-05-01T11:36:09;21.00;54.50
49777;DHT22;35673;51.482;7.436;2023-05-01T11:38:35;21.00;53.60
49777;DHT22;35673;51.482;7.436;2023-05-01T11:41:01;21.20;53.30
49777;DHT22;35673;51.482;7.436;2023-05-01T11:43:28;21.50;52.50
49777;DHT22;35673;51.482;7.436;2023-05-01T11:45:53;21.70;51.70
49777;DHT22;35673;51.482;7.436;2023-05-01T11:48:20;22.00;51.10
49777;DHT22;35673;51.482;7.436;2023-05-01T11:50:46;22.10;50.90
49777;DHT22;35673;51.482;7.436;2023-05-01T11:53:12;22.40;50.50
49777;DHT22;35673;51.482;7.436;2023-05-01T11:55:41;22.40;50.80
49777;DHT22;35673;51.482;7.436;2023-05-01T11:58:07;22.50;51.30
49777;DHT22;35673;51.482;7.436;2023-05-01T12:00:34;22.20;51.00
49777;DHT22;35673;51.482;7.436;2023-05-01T12:03:02;22.10;51.10
49777;DHT22;35673;51.482;7.436;2023-05-01T12:05:29;22.30;50.50
49777;DHT22;35673;51.482;7.436;2023-05-01T12:08:04;23.70;50.40
49777;DHT22;35673;51.482;7.436;2023-05-01T12:10:31;24.70;50.10
49777;DHT22;35673;51.482;7.436;2023-05-01T12:12:56;24.40;47.40
49777;DHT22;35673;51.482;7.436;2023-05-01T12:15:22;24.40;47.30
49777;DHT22;35673;51.482;7.436;2023-05-01T12:17:47;24.00;48.10
49777;DHT22;35673;51.482;7.436;2023-05-01T12:20:14;23.60;48.40
49777;DHT22;35673;51.482;7.436;2023-05-01T12:22:49;23.30;49.10
49777;DHT22;35673;51.482;7.436;2023-05-01T12:25:15;23.00;50.00
49777;DHT22;35673;51.482;7.436;2023-05-01T12:27:42;23.00;49.50
49777;DHT22;35673;51.482;7.436;2023-05-01T12:30:08;22.80;48.90
49777;DHT22;35673;51.482;7.436;2023-05-01T12:32:33;23.40;49.00
49777;DHT22;35673;51.482;7.436;2023-05-01T12:34:59;23.70;47.70
49777;DHT22;35673;51.482;7.436;2023-05-01T12:37:31;24.00;48.00
49777;DHT22;35673;51.482;7.436;2023-05-01T12:39:56;24.30;47.70
49777;DHT22;35673;51.482;7.436;2023-05-01T12:42:22;24.40;47.50
49777;DHT22;35673;51.482;7.436;2023-05-01T12:44:47;24.10;49.00
49777;DHT22;35673;51.482;7.436;2023-05-01T12:47:13;23.50;48.20
49777;DHT22;35673;51.482;7.436;2023-05-01T12:49:39;23.40;48.30
49777;DHT22;35673;51.482;7.436;2023-05-01T12:52:06;23.60;48.70
49777;DHT22;35673;51.482;7.436;2023-05-01T12:54:32;23.20;48.70
49777;DHT22;35673;51.482;7.436;2023-05-01T12:57:06;23.10;48.50
49777;DHT22;35673;51.482;7.436;2023-05-01T12:59:32;23.00;49.00
49777;DHT22;35673;51.482;7.436;2023-05-01T13:01:58;22.60;49.00
49777;DHT22;35673;51.482;7.436;2023-05-01T13:04:25;22.50;49.60
49777;DHT22;35673;51.482;7.436;2023-05-01T13:06:51;22.50;49.50
49777;DHT22;35673;51.482;7.436;2023-05-01T13:09:20;22.50;49.90
49777;DHT22;35673;51.482;7.436;2023-05-01T13:11:59;22.70;49.80
49777;DHT22;35673;51.482;7.436;2023-05-01T13:14:27;23.00;49.30
49777;DHT22;35673;51.482;7.436;2023-05-01T13:16:54;24.40;48.50
49777;DHT22;35673;51.482;7.436;2023-05-01T13:19:23;24.20;47.50
49777;DHT22;35673;51.482;7.436;2023-05-01T13:21:50;24.20;47.70
49777;DHT22;35673;51.482;7.436;2023-05-01T13:24:16;24.10;47.90
49777;DHT22;35673;51.482;7.436;2023-05-01T13:26:42;23.90;48.00
49777;DHT22;35673;51.482;7.436;2023-05-01T13:29:12;25.00;48.40
49777;DHT22;35673;51.482;7.436;2023-05-01T13:31:40;26.00;46.00
49777;DHT22;35673;51.482;7.436;2023-05-01T13:34:07;27.20;46.20
49777;DHT22;35673;51.482;7.436;2023-05-01T13:36:32;28.40;45.40
49777;DHT22;35673;51.482;7.436;2023-05-01T13:38:58;29.20;43.70
49777;DHT22;35673;51.482;7.436;2023-05-01T13:41:24;29.90;42.90
49777;DHT22;35673;51.482;7.436;2023-05-01T13:43:50;30.10;41.80
49777;DHT22;35673;51.482;7.436;2023-05-01T13:46:17;30.40;43.80
49777;DHT22;35673;51.482;7.436;2023-05-01T13:48:43;29.50;44.70
49777;DHT22;35673;51.482;7.436;2023-05-01T13:51:10;28.20;43.60
49777;DHT22;35673;51.482;7.436;2023-05-01T13:53:36;28.90;43.20
49777;DHT22;35673;51.482;7.436;2023-05-01T13:56:03;27.90;43.10
49777;DHT22;35673;51.482;7.436;2023-05-01T13:58:28;26.80;44.50
49777;DHT22;35673;51.482;7.436;2023-05-01T14:00:54;25.90;46.10
49777;DHT22;35673;51.482;7.436;2023-05-01T14:03:20;25.40;46.50
49777;DHT22;35673;51.482;7.436;2023-05-01T14:05:46;24.90;46.40
49777;DHT22;35673;51.482;7.436;2023-05-01T14:08:12;24.40;47.70
49777;DHT22;35673;51.482;7.436;2023-05-01T14:10:38;23.90;48.70
49777;DHT22;35673;51.482;7.436;2023-05-01T14:13:03;23.40;48.20
49777;DHT22;35673;51.482;7.436;2023-05-01T14:15:30;23.20;48.30
49777;DHT22;35673;51.482;7.436;2023-05-01T14:17:57;22.90;48.70
49777;DHT22;35673;51.482;7.436;2023-05-01T14:20:25;22.70;49.10
49777;DHT22;35673;51.482;7.436;2023-05-01T14:22:51;22.70;48.60
49777;DHT22;35673;51.482;7.436;2023-05-01T14:25:29;22.70;49.10
49777;DHT22;35673;51.482;7.436;2023-05-01T14:27:56;22.60;49.20
49777;DHT22;35673;51.482;7.436;2023-05-01T14:30:26;22.50;49.30
49777;DHT22;35673;51.482;7.436;2023-05-01T14:32:52;22.50;50.50
49777;DHT22;35673;51.482;7.436;2023-05-01T14:35:19;22.60;49.70
49777;DHT22;35673;51.482;7.436;2023-05-01T14:37:44;22.60;48.90
49777;DHT22;35673;51.482;7.436;2023-05-01T14:40:10;22.70;48.20
49777;DHT22;35673;51.482;7.436;2023-05-01T14:42:40;23.00;48.50
49777;DHT22;35673;51.482;7.436;2023-05-01T14:45:05;23.10;47.50
49777;DHT22;35673;51.482;7.436;2023-05-01T14:47:33;23.70;46.70
49777;DHT22;35673;51.482;7.436;2023-05-01T14:49:59;26.40;45.60
49777;DHT22;35673;51.482;7.436;2023-05-01T14:52:25;28.40;43.10
49777;DHT22;35673;51.482;7.436;2023-05-01T14:54:50;31.50;41.30
49777;DHT22;35673;51.482;7.436;2023-05-01T14:57:17;32.40;39.40
49777;DHT22;35673;51.482;7.436;2023-05-01T14:59:43;32.00;39.40
49777;DHT22;35673;51.482;7.436;2023-05-01T15:02:08;30.90;40.00
49777;DHT22;35673;51.482;7.436;2023-05-01T15:04:33;30.10;45.50
49777;DHT22;35673;51.482;7.436;2023-05-01T15:06:59;29.60;41.50
49777;DHT22;35673;51.482;7.436;2023-05-01T15:09:25;27.90;43.20
49777;DHT22;35673;51.482;7.436;2023-05-01T15:11:50;26.60;43.50
49777;DHT22;35673;51.482;7.436;2023-05-01T15:14:16;25.70;44.70
49777;DHT22;35673;51.482;7.436;2023-05-01T15:16:41;24.80;46.10
49777;DHT22;35673;51.482;7.436;2023-05-01T15:19:07;23.90;47.10
49777;DHT22;35673;51.482;7.436;2023-05-01T15:21:32;23.40;47.60
49777;DHT22;35673;51.482;7.436;2023-05-01T15:23:58;23.00;49.40
49777;DHT22;35673;51.482;7.436;2023-05-01T15:26:23;22.60;50.50
49777;DHT22;35673;51.482;7.436;2023-05-01T15:28:49;22.20;49.50
49777;DHT22;35673;51.482;7.436;2023-05-01T15:31:14;21.90;50.80
49777;DHT22;35673;51.482;7.436;2023-05-01T15:33:40;21.50;51.30
49777;DHT22;35673;51.482;7.436;2023-05-01T15:36:06;21.20;53.00
49777;DHT22;35673;51.482;7.436;2023-05-01T15:38:31;20.70;52.80
49777;DHT22;35673;51.482;7.436;2023-05-01T15:40:57;20.40;53.60
49777;DHT22;35673;51.482;7.436;2023-05-01T15:43:22;20.10;53.90
49777;DHT22;35673;51.482;7.436;2023-05-01T15:45:48;19.80;54.30
49777;DHT22;35673;51.482;7.436;2023-05-01T15:48:14;19.60;55.50
49777;DHT22;35673;51.482;7.436;2023-05-01T15:50:39;19.20;56.30
49777;DHT22;35673;51.482;7.436;2023-05-01T15:53:05;18.70;57.90
49777;DHT22;35673;51.482;7.436;2023-05-01T15:55:30;18.40;58.80
49777;DHT22;35673;51.482;7.436;2023-05-01T15:57:56;18.20;59.80
49777;DHT22;35673;51.482;7.436;2023-05-01T16:00:22;17.90;60.50
49777;DHT22;35673;51.482;7.436;2023-05-01T16:02:47;17.60;61.50